Anza Borrego Desert Research Center, California Weather observations

Data are for 10 minute period ending at time listed.
 Day   Time   Solar   Ave.   Ave.  Ave.  Vector  Max.   Baro.   Total    
  of    of     Rad.   Air    Rel.  Wind   Wind   Wind  Press.  Precip.   
Year   Day            Temp.  Hum.  Speed  Dir.   Gust                    
2014   (PST)  Kw/m2    F      %     mph   deg.    mph    mb.     in.     
-------------------------------------------------------------------------
 238    3:10   0.00   84.3    20    6.4   244    16.0   502.0    0.00 
 238    3:20   0.00   83.9    20    3.1   276     5.0   502.0    0.00 
 238    3:30   0.00   82.3    22    2.4   310     4.5   502.0    0.00 
 238    3:40   0.00   83.2    21    5.9   304    11.5   502.0    0.00 
 238    3:50   0.00   84.5    21    5.9   324    11.4   502.0    0.00 
 238    4:00   0.00   82.4    22    3.4     3     5.3   502.0    0.00 
 238    4:10   0.00   81.2    24    2.4   333     4.2   502.0    0.00 
 238    4:20   0.00   82.1    22    1.9   107     4.2   502.0    0.00 
 238    4:30   0.00   80.9    23    4.2   182     5.9   502.0    0.00 
 238    4:40   0.00   80.2    24    5.1   214     7.1   501.9    0.00 
 238    4:50   0.00   79.4    24    6.0   232     8.1   501.9    0.00 
 238    5:00   0.00   78.6    25    3.7   221     6.0   501.9    0.00 
 238    5:10   0.00   78.9    24    4.0   208     5.3   501.9    0.00 
 238    5:20   0.00   77.1    26    4.1   213     5.7   501.8    0.00 
 238    5:30   0.01   79.6    23    1.8   196     4.2   501.8    0.00 
 238    5:40   0.01   79.7    24    3.2   204     5.1   501.8    0.00 
 238    5:50   0.03   80.0    24    5.1   240     6.9   501.8    0.00 
 238    6:00   0.05   80.6    23    4.9   248     6.2   501.8    0.00 
 238    6:10   0.09   81.6    23    3.2   280     5.2   501.8    0.00 
 238    6:20   0.14   84.2    21    2.9   167     5.4   501.9    0.00 
 238    6:30   0.18   86.1    20    2.4   227     3.1   501.9    0.00 
 238    6:40   0.21   88.4    19    1.7   277     3.2   502.0    0.00 
 238    6:50   0.25   88.6    19    1.7     1     3.4   502.0    0.00 
 238    7:00   0.29   89.9    18    1.0    17     2.0   502.0    0.00 
 238    7:10   0.33   93.6    16    0.4    95     1.5   502.0    0.00 
 238    7:20   0.36   95.6    15    0.5   143     1.6   502.0    0.00 
 238    7:30   0.39   94.8    16    0.6   122     2.0   502.0    0.00 
 238    7:40   0.43   94.0    16    1.4    49     3.7   502.0    0.00 
 238    7:50   0.46   92.5    17    2.8    66     5.0   502.1    0.00 
 238    8:00   0.50   91.7    17    3.7    75     5.9   502.1    0.00 
 238    8:10   0.53   91.7    17    3.1    84     5.0   502.1    0.00 
 238    8:20   0.56   92.8    17    2.3   100     4.7   502.1    0.00 
 238    8:30   0.59   93.0    16    2.9    83     5.4   502.1    0.00 
 238    8:40   0.62   93.3    16    2.9    95     6.8   502.1    0.00 
 238    8:50   0.66   93.8    16    2.8   125     6.9   502.1    0.00 
 238    9:00   0.68   93.9    16    3.6   128     8.4   502.1    0.00 
 238    9:10   0.71   94.1    15    3.2   121     5.9   502.3    0.00 
 238    9:20   0.74   94.9    15    3.1   111     6.9   502.3    0.00 
 238    9:30   0.77   95.7    14    2.3    52     6.1   502.3    0.00 
 238    9:40   0.79   95.9    14    4.4   100     7.6   502.3    0.00 
 238    9:50   0.81   96.4    14    2.1   100     7.4   502.3    0.00 
 238   10:00   0.84   97.0    14    2.7    65     6.2   502.3    0.00 
 238   10:10   0.77   96.3    14    5.3   104     8.3   502.3    0.00 
 238   10:20   0.79   95.8    14    5.8    92    12.4   502.4    0.00 
 238   10:30   0.91   96.9    14    5.2   117    10.2   502.4    0.00 
 238   10:40   0.74   96.7    14    5.9   109    13.4   502.5    0.00 
 238   10:50   0.81   96.5    15    5.7   114    10.0   502.5    0.00 
 238   11:00   0.87   97.4    15    4.8   117    12.2   502.5    0.00 
 238   11:10   0.69   97.3    15    5.9   106    12.5   582.2    0.00 
 238   11:20   0.68   96.9    16    4.0   104     9.8   975.8    0.00 
 238   11:30   0.83   96.9    17    7.2    80    12.5   921.1    0.00 
 238   11:40   0.93   97.6    16    9.2    93    15.6   502.4    0.00 
 238   11:50   0.89   97.7    17    7.3   108    13.4   502.4    0.00 
 238   12:00   1.02   99.4    15    7.6   149    12.4   502.4    0.00 
 238   12:10   1.01   99.3    16    5.9   115    10.8   655.8    0.00 
 238   12:20   0.98   99.3    16    5.6    86    11.8   980.7    0.00 
 238   12:30   0.94   99.5    15    5.3    55     9.6   980.7    0.00 
 238   12:40   0.91  101.0    15    4.7    66     9.9   980.5    0.00 
 238   12:50   0.88  101.1    16    8.9    69    14.5   980.3    0.00 
 238   13:00   0.89  102.1    15    6.4   167    13.3   980.1    0.00 
 238   13:10   0.87  102.1    14    7.3   200    14.5   979.9    0.00 
 238   13:20   0.85  102.7    13   12.2   237    20.1   979.8    0.00 
 238   13:30   0.84  102.5    13   14.0   220    24.0   979.6    0.00 
 238   13:40   0.82  102.7    14   14.7   219    23.8   979.5    0.00 
 238   13:50   0.80  103.1    14   12.0   234    18.0   979.4    0.00 
 238   14:00   0.78  103.2    14   12.4   240    21.2   979.2    0.00 
 238   14:10   0.76  102.5    14   11.3   238    18.6   979.2    0.00 
 238   14:20   0.73  102.5    15   15.0   235    22.9   979.1    0.00 
 238   14:30   0.71  102.3    16   11.4   251    19.4   979.0    0.00 
 238   14:40   0.68  102.7    16   12.6   237    18.6   979.0    0.00 
 238   14:50   0.65  102.1    16   11.2   237    20.2   978.9    0.00 
 238   15:00   0.63  102.2    16   13.2   237    21.5   978.9    0.00 
 238   15:10   0.59  101.5    16   14.3   232    22.9   978.9    0.00 
 238   15:20   0.56  101.4    16   11.7   261    20.8   978.9    0.00 
 238   15:30   0.53  101.4    16   11.5   250    19.6   978.9    0.00 
 238   15:40   0.50  100.5    17   17.4   243    24.0   978.8    0.00 
 238   15:50   0.47  100.4    17   14.9   247    21.3   978.8    0.00 
 238   16:00   0.43   99.9    18   15.0   268    21.2   978.9    0.00 
 238   16:10   0.40   99.4    18   14.5   267    22.2   979.0    0.00 
 238   16:20   0.37   98.8    18   13.6   263    20.2   979.1    0.00 
 238   16:30   0.33   98.4    18   16.2   261    26.2   979.2    0.00 
 238   16:40   0.30   97.6    19   14.8   264    23.2   979.1    0.00 
 238   16:50   0.26   97.6    18   14.6   264    22.0   978.2    0.00 
 238   17:00   0.22   96.8    18   16.2   254    22.6   803.9    0.00 
 238   17:10   0.11   96.0    18   16.5   253    23.9   502.3    0.00 
 238   17:20   0.01   94.3    19   17.1   256    23.9   502.3    0.00 
 238   17:30   0.01   93.7    19   16.3   257    26.2   502.3    0.00 
 238   17:40   0.01   93.3    19   17.0   264    23.5   502.3    0.00 
 238   17:50   0.01   93.0    18   18.3   263    27.5   502.2    0.00 
 238   18:00   0.01   92.9    18   21.2   261    27.2   502.1    0.00 
 238   18:10   0.00   92.7    18   16.3   264    24.0   502.1    0.00 
 238   18:20   0.00   92.6    18   12.8   265    19.3   502.1    0.00 
 238   18:30   0.00   92.6    18   10.6   261    17.0   502.1    0.00 
 238   18:40   0.00   92.5    18    7.1   283    19.6   502.1    0.00 
 238   18:50   0.00   92.3    18    4.4   359    17.3   502.1    0.00 
 238   19:00   0.00   91.7    19    7.9   319    18.9   502.1    0.00 
 238   19:10   0.00   91.8    19    4.1   343    11.6   502.1    0.00 
 238   19:20   0.00   91.9    19    5.3   291    13.4   502.1    0.00 
 238   19:30   0.00   92.8    18    5.8   282    12.1   502.1    0.00 
 238   19:40   0.00   92.1    19    4.3    55     7.9   502.1    0.00 
 238   19:50   0.00   91.4    19    5.1    34    14.9   502.1    0.00 
 238   20:00   0.00   91.0    17    6.6    11    13.8   502.1    0.00 
 238   20:10   0.00   90.8    17    7.4    17    14.0   502.1    0.00 
 238   20:20   0.00   90.6    17    5.0    55     9.5   502.1    0.00 
 238   20:30   0.00   89.6    20    6.3    90    11.0   502.1    0.00 
 238   20:40   0.00   88.2    21    2.9    84     6.0   502.0    0.00 
 238   20:50   0.00   87.5    21    1.1   302     2.1   502.0    0.00 
 238   21:00   0.00   87.8    21    1.8    63     4.0   502.0    0.00 
 238   21:10   0.00   87.4    21    1.8   113     4.2   502.0    0.00 
 238   21:20   0.00   86.7    21    3.0    95     6.9   502.0    0.00 
 238   21:30   0.00   86.8    22    4.6    86     6.5   502.0    0.00 
 238   21:40   0.00   86.7    22    5.0    89     9.0   502.0    0.00 
 238   21:50   0.00   86.1    22    5.1    93     8.3   502.0    0.00 
 238   22:00   0.00   85.2    22    4.3   141     8.2   502.0    0.00 
 238   22:10   0.00   85.0    22    7.2   121     9.4   502.0    0.00 
 238   22:20   0.00   84.6    24    6.3   112     8.5   502.0    0.00 
 238   22:30   0.00   84.2    24    5.6   133     8.6   502.0    0.00 
 238   22:40   0.00   84.3    24    8.2   144    12.3   502.0    0.00 
 238   22:50   0.00   84.7    23    7.0   130    10.2   502.0    0.00 
 238   23:00   0.00   84.6    23    3.2    98     7.9   502.0    0.00 
 238   23:10   0.00   83.3    24    2.7    16     4.7   502.0    0.00 
 238   23:20   0.00   81.9    25    0.7    62     2.7   502.0    0.00 
 238   23:30   0.00   81.6    26    2.0   165     5.3   502.0    0.00 
 238   23:40   0.00   81.5    25    4.7   163     6.9   502.0    0.00 
 238   23:50   0.00   80.5    26    5.3   230     7.4   502.0    0.00 
 239    0:00   0.00   80.2    26    5.9   219     8.2   502.0    0.00 
 239    0:10   0.00   80.8    26    5.8   226     8.0   502.0    0.00 
 239    0:20   0.00   80.8    27    5.6   204     7.6   502.0    0.00 
 239    0:30   0.00   81.2    28    5.0   191     8.0   502.0    0.00 
 239    0:40   0.00   80.8    28    6.0   174     8.4   502.0    0.00 
 239    0:50   0.00   81.1    29    4.6   178     6.2   501.9    0.00 
 239    1:00   0.00   81.3    29    4.9   218     7.2   501.9    0.00 
 239    1:10   0.00   81.2    29    3.6   219     5.3   501.9    0.00 
 239    1:20   0.00   79.9    29    2.9   204     4.1   501.9    0.00 
 239    1:30   0.00   79.3    30    1.9   189     5.5   501.9    0.00 
 239    1:40   0.00   79.8    30    1.5    86     3.9   501.9    0.00 
 239    1:50   0.00   79.4    31    3.5   192     6.4   501.8    0.00 
 239    2:00   0.00   80.2    31    6.1   201     8.0   501.8    0.00 
 239    2:10   0.00   79.5    32    5.0   239     6.9   501.8    0.00 
 239    2:20   0.00   79.3    32    4.9   204     6.4   501.9    0.00 
 239    2:30   0.00   79.8    32    5.5   200     7.1   501.9    0.00 
 239    2:40   0.00   79.9    32    4.9   221     7.0   501.9    0.00 
 239    2:50   0.00   78.3    33    3.3   248     5.0   501.9    0.00 
 239    3:00   0.00   79.0    32    0.9   331     2.6   501.8    0.00 

Return to Anza Borrego Desert Research Center graphs page.


Western Regional Climate Center,wrcc@dri.edu